Time;durP1;ratioP1;P1;durP2;ratioP2;P2;SDS_P1;SDS_P2;PMS_P1;PMS_P2;Temp;Humidity;BMP_temperature;BMP_pressure;BME280_temperature;BME280_humidity;BME280_pressure;Samples;Min_cycle;Max_cycle;Signal;HPM_P1;HPM_P2
2023/06/09 00:02:38;;;;;;;4.88;2.97;;;;;;;15.94;60.72;99688.25;10513476;28;20105;-61
2023/06/09 00:07:41;;;;;;;5.97;3.03;;;;;;;15.83;60.53;99696.28;10505377;28;20048;-61
2023/06/09 00:12:43;;;;;;;6.72;3.13;;;;;;;15.62;60.55;99701.56;10512685;28;20044;-63
2023/06/09 00:17:45;;;;;;;5.85;3.10;;;;;;;15.70;60.64;99712.28;10505131;28;20055;-63
2023/06/09 00:22:48;;;;;;;6.57;3.30;;;;;;;15.75;60.18;99706.63;10512633;28;20055;-63
2023/06/09 00:27:50;;;;;;;5.32;2.90;;;;;;;15.69;60.65;99705.38;10505822;28;20539;-63
2023/06/09 00:32:52;;;;;;;4.85;3.13;;;;;;;15.40;60.65;99702.50;10511811;28;20086;-63
2023/06/09 00:37:54;;;;;;;4.88;2.80;;;;;;;15.13;60.98;99703.91;10504336;28;20077;-62
2023/06/09 00:42:56;;;;;;;6.88;3.10;;;;;;;15.15;60.87;99702.84;10511533;28;20044;-63
2023/06/09 00:47:58;;;;;;;5.03;2.90;;;;;;;14.96;61.39;99707.09;10505811;28;20050;-61
2023/06/09 00:53:00;;;;;;;8.05;3.10;;;;;;;14.85;61.28;99712.41;10512176;28;20051;-61
2023/06/09 00:58:02;;;;;;;4.90;3.08;;;;;;;14.91;61.45;99704.00;10503923;28;20040;-61
2023/06/09 01:03:05;;;;;;;4.65;2.80;;;;;;;15.01;61.30;99716.31;10511912;28;20102;-62
2023/06/09 01:08:25;;;;;;;5.65;2.80;;;;;;;15.02;61.82;99717.97;10499309;28;20581;-61
2023/06/09 01:14:06;;;;;;;6.40;2.83;;;;;;;14.98;61.71;99715.72;10507156;28;20101;-61
2023/06/09 01:19:20;;;;;;;4.32;2.75;;;;;;;15.02;61.34;99717.97;10496599;28;20058;-61
2023/06/09 01:24:32;;;;;;;8.30;3.22;;;;;;;14.90;61.64;99718.13;10503968;28;20058;-62
2023/06/09 01:29:36;;;;;;;4.20;2.65;;;;;;;14.84;61.25;99719.44;10497807;28;20050;-61
2023/06/09 01:34:39;;;;;;;5.03;3.08;;;;;;;14.76;61.58;99708.69;10507181;28;20135;-61
2023/06/09 01:39:41;;;;;;;6.30;3.30;;;;;;;14.62;61.49;99710.75;10501092;28;20047;-61
2023/06/09 01:44:43;;;;;;;4.28;2.80;;;;;;;14.42;62.21;99713.16;10507544;28;20114;-61
2023/06/09 01:49:58;;;;;;;6.57;3.08;;;;;;;14.26;62.01;99711.84;10498571;28;20068;-62
2023/06/09 01:55:09;;;;;;;5.32;3.30;;;;;;;13.77;62.62;99715.66;10477317;28;21083;-61
2023/06/09 02:00:12;;;;;;;5.57;2.42;;;;;;;13.59;62.66;99721.47;10494849;28;20051;-61
2023/06/09 02:05:18;;;;;;;5.50;3.20;;;;;;;13.78;62.62;99721.72;10513852;28;20046;-61
2023/06/09 02:10:21;;;;;;;5.65;3.25;;;;;;;14.05;62.16;99726.66;10505474;28;20047;-61
2023/06/09 02:15:23;;;;;;;4.85;3.10;;;;;;;13.95;62.21;99723.06;10494202;28;20052;-60
2023/06/09 02:20:25;;;;;;;4.75;2.78;;;;;;;13.84;62.39;99708.09;10503642;28;20051;-61
2023/06/09 02:25:28;;;;;;;4.30;2.50;;;;;;;13.94;61.97;99708.25;10512179;28;20439;-60
2023/06/09 02:30:33;;;;;;;4.18;2.47;;;;;;;14.05;62.05;99698.56;10502822;28;20047;-61
2023/06/09 02:35:35;;;;;;;4.90;2.90;;;;;;;14.13;61.74;99705.84;10512811;28;20455;-61
2023/06/09 02:40:42;;;;;;;6.15;2.65;;;;;;;13.88;62.08;99695.59;10503984;28;20143;-61
2023/06/09 02:45:44;;;;;;;10.77;2.88;;;;;;;13.52;62.54;99701.84;10512102;28;20052;-61
2023/06/09 02:50:46;;;;;;;4.00;2.45;;;;;;;13.17;62.89;99703.63;10503523;28;20093;-61
2023/06/09 02:55:50;;;;;;;4.75;2.92;;;;;;;13.14;63.35;99709.09;10509245;28;20147;-61
2023/06/09 03:00:58;;;;;;;6.03;2.80;;;;;;;13.14;63.06;99709.09;10488717;28;20058;-61
2023/06/09 03:06:00;;;;;;;5.47;2.92;;;;;;;13.36;63.02;99710.00;10504609;28;20044;-60
2023/06/09 03:11:04;;;;;;;4.32;2.40;;;;;;;13.52;62.85;99704.47;10496963;28;20164;-61
2023/06/09 03:16:07;;;;;;;6.28;2.38;;;;;;;13.43;62.50;99715.69;10502714;28;20048;-61
2023/06/09 03:21:10;;;;;;;3.58;2.28;;;;;;;13.47;62.53;99717.13;10496187;28;20147;-61
2023/06/09 03:26:14;;;;;;;3.47;2.47;;;;;;;13.62;62.26;99711.53;10501948;28;20048;-61
2023/06/09 03:31:17;;;;;;;7.95;3.28;;;;;;;13.74;62.08;99718.50;10497833;28;20036;-61
2023/06/09 03:36:22;;;;;;;4.70;2.83;;;;;;;13.63;61.79;99713.22;10506307;28;20040;-63
2023/06/09 03:41:26;;;;;;;6.40;2.70;;;;;;;13.47;61.96;99727.63;10490562;28;20044;-62
2023/06/09 03:46:30;;;;;;;6.60;2.53;;;;;;;13.22;62.53;99727.75;10508977;28;20167;-62
2023/06/09 03:51:32;;;;;;;4.13;2.60;;;;;;;13.15;62.52;99731.78;10510194;28;20059;-60
2023/06/09 03:56:35;;;;;;;5.32;2.47;;;;;;;13.11;62.61;99725.06;10503831;28;20624;-63
2023/06/09 04:01:40;;;;;;;3.65;2.47;;;;;;;13.46;62.37;99732.03;10509866;28;20060;-62
2023/06/09 04:06:45;;;;;;;4.55;2.55;;;;;;;13.74;62.21;99728.16;10502911;28;20060;-63
2023/06/09 04:11:52;;;;;;;3.70;2.45;;;;;;;13.75;61.79;99725.44;10527689;28;20052;-62
2023/06/09 04:16:54;;;;;;;4.32;2.60;;;;;;;14.29;61.31;99725.59;10501594;28;20047;-63
2023/06/09 04:22:04;;;;;;;5.75;2.65;;;;;;;15.03;59.96;99717.00;10509762;28;20070;-63
2023/06/09 04:27:07;;;;;;;3.92;2.28;;;;;;;16.21;57.69;99715.75;10502180;28;20055;-62
2023/06/09 04:32:11;;;;;;;4.38;2.70;;;;;;;17.33;55.57;99720.75;10510826;28;20052;-62
2023/06/09 04:37:13;;;;;;;3.58;2.38;;;;;;;18.83;53.07;99713.50;10502877;28;20135;-63
2023/06/09 04:42:20;;;;;;;3.63;2.40;;;;;;;20.23;50.66;99701.91;10509998;28;20887;-62
2023/06/09 04:47:24;;;;;;;3.83;2.20;;;;;;;21.68;48.10;99696.97;10500136;28;20044;-63
2023/06/09 04:52:27;;;;;;;3.85;2.10;;;;;;;23.33;45.02;99699.50;10509010;28;20048;-62
2023/06/09 04:57:31;;;;;;;3.13;2.10;;;;;;;23.76;43.76;99696.13;10498796;28;20040;-62
2023/06/09 05:02:34;;;;;;;3.95;2.30;;;;;;;24.89;41.69;99693.00;10508121;28;20052;-63
2023/06/09 05:07:39;;;;;;;3.50;2.20;;;;;;;25.17;41.14;99700.28;10500060;28;20052;-62
2023/06/09 05:12:42;;;;;;;3.15;2.13;;;;;;;25.49;40.47;99703.28;10503599;28;20036;-63
2023/06/09 05:17:44;;;;;;;3.08;2.00;;;;;;;26.07;39.69;99701.28;10499783;28;20055;-62
2023/06/09 05:22:47;;;;;;;3.10;2.03;;;;;;;26.68;38.42;99695.88;10503940;28;20071;-63
2023/06/09 05:27:50;;;;;;;3.80;2.20;;;;;;;26.70;37.41;99687.63;10499166;28;20388;-63
2023/06/09 05:32:53;;;;;;;3.47;2.17;;;;;;;24.23;40.33;99698.50;10508491;28;20058;-62
2023/06/09 05:37:55;;;;;;;3.83;2.05;;;;;;;22.48;43.06;99703.94;10498319;28;20050;-62
2023/06/09 05:43:00;;;;;;;3.40;2.10;;;;;;;21.52;44.98;99720.09;10505783;28;20585;-62
2023/06/09 05:48:03;;;;;;;3.20;2.03;;;;;;;21.02;46.04;99723.69;10499196;28;20869;-62
2023/06/09 05:53:05;;;;;;;4.05;2.50;;;;;;;20.68;46.65;99725.56;10505538;28;20044;-62
2023/06/09 05:58:07;;;;;;;3.60;2.45;;;;;;;20.49;47.05;99727.59;10499263;28;20059;-62
2023/06/09 06:03:10;;;;;;;4.18;2.60;;;;;;;20.24;47.43;99729.31;10506368;28;20048;-62
2023/06/09 06:08:13;;;;;;;5.25;2.92;;;;;;;19.88;48.19;99744.53;10494305;28;20159;-62
2023/06/09 06:13:15;;;;;;;5.20;2.97;;;;;;;20.02;47.87;99733.34;10506892;28;20048;-62
2023/06/09 06:18:16;;;;;;;4.38;2.50;;;;;;;20.11;47.97;99737.69;10499704;28;20101;-62
2023/06/09 06:23:18;;;;;;;4.65;2.47;;;;;;;20.06;48.30;99745.31;10502245;28;20047;-62
2023/06/09 06:28:21;;;;;;;3.85;2.60;;;;;;;20.02;48.60;99743.13;10498770;28;20078;-62
2023/06/09 06:33:23;;;;;;;4.88;3.10;;;;;;;20.19;48.67;99751.03;10506455;28;20048;-62
2023/06/09 06:38:25;;;;;;;4.72;2.80;;;;;;;20.33;48.16;99748.78;10496556;28;20048;-62
2023/06/09 06:43:27;;;;;;;4.28;2.70;;;;;;;20.86;47.54;99744.06;10506774;28;20060;-62
2023/06/09 06:48:33;;;;;;;5.10;2.72;;;;;;;21.88;46.44;99734.72;10498934;28;20697;-63
2023/06/09 06:53:37;;;;;;;5.13;2.60;;;;;;;22.56;44.65;99730.56;10507465;28;20044;-63
2023/06/09 06:58:39;;;;;;;6.50;2.60;;;;;;;23.29;44.50;99732.84;10501011;28;20504;-63
2023/06/09 07:03:42;;;;;;;6.03;2.63;;;;;;;24.39;43.22;99724.22;10507158;28;20511;-62
2023/06/09 07:08:44;;;;;;;4.15;2.45;;;;;;;26.25;41.20;99712.34;10501245;28;20540;-61
2023/06/09 07:13:46;;;;;;;4.60;2.47;;;;;;;27.93;39.09;99706.84;10516650;28;20484;-61
2023/06/09 07:18:48;;;;;;;4.45;2.35;;;;;;;28.81;37.25;99716.94;10507113;28;20479;-61
2023/06/09 07:23:50;;;;;;;3.65;2.42;;;;;;;29.24;35.79;99711.75;10487893;28;20048;-62
2023/06/09 07:28:52;;;;;;;4.30;2.63;;;;;;;28.87;34.41;99716.97;10500948;28;20044;-61
2023/06/09 07:33:54;;;;;;;4.68;2.33;;;;;;;28.44;34.25;99705.09;10515183;28;20044;-62
2023/06/09 07:38:57;;;;;;;2.83;2.00;;;;;;;29.28;34.50;99705.72;10503989;28;20055;-62
2023/06/09 07:43:59;;;;;;;4.03;2.25;;;;;;;29.99;33.59;99698.16;10508176;28;20054;-61
2023/06/09 07:49:02;;;;;;;3.47;2.38;;;;;;;29.56;33.27;99703.47;10507005;28;20044;-62
2023/06/09 07:54:07;;;;;;;3.30;2.10;;;;;;;29.22;33.83;99698.53;10495862;28;20098;-60
2023/06/09 07:59:09;;;;;;;5.05;2.22;;;;;;;28.82;33.32;99702.47;10504388;28;20662;-60
2023/06/09 08:04:11;;;;;;;5.15;2.00;;;;;;;29.74;32.77;99694.63;10512080;28;20504;-60
2023/06/09 08:09:14;;;;;;;3.83;2.22;;;;;;;30.15;32.25;99694.06;10503790;28;20055;-60
2023/06/09 08:14:17;;;;;;;3.67;2.20;;;;;;;29.48;32.26;99697.56;10509683;28;20052;-60
2023/06/09 08:19:19;;;;;;;3.85;2.13;;;;;;;29.91;32.30;99698.41;10496675;28;20048;-60
2023/06/09 08:24:21;;;;;;;3.50;2.17;;;;;;;30.15;30.50;99697.56;10508977;28;20690;-60
2023/06/09 08:29:23;;;;;;;3.53;2.25;;;;;;;29.85;31.65;99683.13;10499716;28;20063;-60
2023/06/09 08:34:25;;;;;;;3.55;2.20;;;;;;;30.08;31.24;99683.34;10509744;28;20040;-61
2023/06/09 08:39:27;;;;;;;2.80;1.90;;;;;;;29.95;31.51;99677.28;10502651;28;20085;-60
2023/06/09 08:44:34;;;;;;;3.63;2.13;;;;;;;30.65;31.22;99673.97;10504117;28;20051;-60
2023/06/09 08:49:36;;;;;;;3.08;1.90;;;;;;;30.66;29.49;99668.34;10498665;28;20048;-60
2023/06/09 08:54:40;;;;;;;3.35;2.00;;;;;;;30.06;30.54;99669.25;10501015;28;20036;-60
2023/06/09 08:59:44;;;;;;;3.03;1.77;;;;;;;30.31;30.62;99661.94;10497613;28;20156;-60
2023/06/09 09:04:46;;;;;;;3.00;2.00;;;;;;;30.19;30.81;99662.91;10464610;28;1143798;-60
2023/06/09 09:09:48;;;;;;;3.03;1.90;;;;;;;30.29;29.13;99652.41;10501890;28;21335;-60
2023/06/09 09:14:50;;;;;;;3.13;1.60;;;;;;;29.94;30.16;99633.28;10509378;28;20085;-60
2023/06/09 09:19:54;;;;;;;2.35;1.65;;;;;;;29.95;30.44;99639.53;10500637;28;20389;-60
2023/06/09 09:24:56;;;;;;;2.70;1.58;;;;;;;29.98;29.92;99629.09;10508418;28;20404;-60
2023/06/09 09:29:58;;;;;;;1.98;1.50;;;;;;;30.10;30.37;99639.94;10495932;28;20051;-61
2023/06/09 09:35:00;;;;;;;3.05;1.70;;;;;;;29.93;30.15;99645.09;10498227;28;20048;-60
2023/06/09 09:40:02;;;;;;;3.53;1.70;;;;;;;29.82;29.49;99641.28;10499793;28;20052;-61
2023/06/09 09:45:05;;;;;;;2.45;1.48;;;;;;;29.72;27.99;99642.81;10508321;28;20047;-60
2023/06/09 09:50:10;;;;;;;2.92;1.80;;;;;;;30.51;28.64;99635.56;10499987;28;20040;-60
2023/06/09 09:55:13;;;;;;;3.17;1.80;;;;;;;30.65;28.32;99620.81;10506692;28;20707;-61
2023/06/09 10:00:15;;;;;;;2.83;1.90;;;;;;;30.68;27.71;99619.56;10496223;28;20051;-60
2023/06/09 10:05:21;;;;;;;3.63;1.90;;;;;;;30.31;27.56;99615.22;10502954;28;20113;-61
2023/06/09 10:10:26;;;;;;;2.33;1.73;;;;;;;30.15;28.03;99610.44;10514041;28;20503;-61
2023/06/09 10:15:31;;;;;;;2.55;1.63;;;;;;;30.51;26.74;99607.72;10484839;28;20097;-61
2023/06/09 10:20:35;;;;;;;3.45;1.90;;;;;;;30.23;27.86;99608.28;10493971;28;20722;-61
2023/06/09 10:25:37;;;;;;;2.83;1.70;;;;;;;30.30;27.86;99603.59;10505111;28;20078;-60
2023/06/09 10:30:40;;;;;;;2.85;1.75;;;;;;;30.44;27.63;99602.38;10494080;28;20490;-61
2023/06/09 10:35:46;;;;;;;4.13;1.73;;;;;;;29.76;26.38;99607.09;10500486;28;20538;-60
2023/06/09 10:40:52;;;;;;;3.38;1.90;;;;;;;28.86;27.33;99596.88;10496279;28;20044;-60
2023/06/09 10:45:56;;;;;;;2.67;1.60;;;;;;;28.69;28.71;99593.00;10506099;28;20044;-61
2023/06/09 11:02:01;;;;;;;4.93;1.90;;;;;;;27.64;29.54;99587.16;10327844;27;20137;-60
2023/06/09 11:07:24;;;;;;;3.00;1.77;;;;;;;27.95;28.80;99581.13;10326370;28;20093;-60
2023/06/09 11:12:46;;;;;;;3.72;2.00;;;;;;;28.35;28.29;99581.81;10328278;28;20054;-60
2023/06/09 11:17:52;;;;;;;3.10;1.73;;;;;;;28.57;28.78;99575.91;10326559;28;20054;-61
2023/06/09 11:22:59;;;;;;;3.63;2.00;;;;;;;28.83;27.53;99581.09;10327276;28;20403;-62
2023/06/09 11:28:01;;;;;;;3.20;1.83;;;;;;;28.96;28.60;99572.97;10325989;28;20057;-61
2023/06/09 11:33:04;;;;;;;3.97;2.38;;;;;;;28.69;29.12;99563.41;10324579;28;20057;-60
2023/06/09 11:38:12;;;;;;;4.75;2.15;;;;;;;28.63;28.29;99556.19;10324526;28;20061;-60
2023/06/09 11:43:16;;;;;;;3.45;2.28;;;;;;;28.71;29.08;99555.94;10323100;28;20524;-60
2023/06/09 11:48:18;;;;;;;3.65;2.20;;;;;;;28.38;28.84;99563.38;10322993;28;20117;-60
2023/06/09 11:53:21;;;;;;;2.92;2.05;;;;;;;28.10;28.66;99552.94;10303801;28;20062;-60
2023/06/09 11:58:24;;;;;;;3.22;1.95;;;;;;;28.34;29.29;99553.28;10301066;28;20054;-60
2023/06/09 12:03:26;;;;;;;3.42;2.20;;;;;;;28.50;28.93;99542.84;10320442;28;20148;-60
2023/06/09 12:08:29;;;;;;;3.25;2.03;;;;;;;28.82;28.66;99547.16;10319358;28;20803;-60
2023/06/09 12:13:44;;;;;;;4.43;2.45;;;;;;;28.28;29.14;99544.97;10296452;28;20043;-60
2023/06/09 12:18:46;;;;;;;3.42;2.10;;;;;;;28.30;29.55;99541.31;10279515;28;20047;-60
2023/06/09 12:23:54;;;;;;;3.65;2.15;;;;;;;28.43;28.69;99539.34;10297586;28;20133;-60
2023/06/09 12:28:57;;;;;;;5.18;2.47;;;;;;;28.65;28.80;99537.97;10290886;28;20684;-60
2023/06/09 12:34:00;;;;;;;3.00;1.90;;;;;;;28.97;28.47;99530.72;10296245;28;20059;-60
2023/06/09 12:39:16;;;;;;;3.70;2.00;;;;;;;28.81;27.98;99523.13;10299059;28;20115;-60
2023/06/09 12:44:25;;;;;;;2.92;2.08;;;;;;;28.71;26.71;99522.81;10299013;28;20073;-60
2023/06/09 12:49:31;;;;;;;3.83;2.42;;;;;;;29.12;27.74;99514.22;10297550;28;20046;-60
2023/06/09 12:54:37;;;;;;;3.28;2.13;;;;;;;28.73;27.78;99523.41;10297403;28;20135;-60
2023/06/09 12:59:39;;;;;;;3.50;2.10;;;;;;;28.78;28.21;99512.81;10293273;28;20050;-60
2023/06/09 13:04:41;;;;;;;3.58;2.13;;;;;;;28.96;28.34;99510.22;10280112;28;20053;-60
2023/06/09 13:09:43;;;;;;;5.40;2.22;;;;;;;29.11;27.51;99520.66;10294552;28;20058;-60
2023/06/09 13:14:45;;;;;;;3.95;2.10;;;;;;;29.01;27.66;99513.09;10347381;28;20545;-60
2023/06/09 13:19:47;;;;;;;3.20;1.92;;;;;;;29.05;27.73;99512.41;10293316;28;20076;-59
2023/06/09 13:24:49;;;;;;;4.20;2.20;;;;;;;29.31;27.92;99508.66;10296614;28;20053;-60
2023/06/09 13:29:51;;;;;;;3.58;2.20;;;;;;;29.19;26.89;99504.22;10289148;28;20047;-60
2023/06/09 13:34:53;;;;;;;3.22;2.10;;;;;;;29.25;26.76;99498.78;10291938;28;20061;-60
2023/06/09 13:39:55;;;;;;;3.40;2.10;;;;;;;29.36;26.97;99499.91;10271027;28;20561;-60
2023/06/09 13:44:57;;;;;;;3.55;2.00;;;;;;;29.17;26.99;99498.22;10294838;28;20060;-60
2023/06/09 13:49:59;;;;;;;3.45;2.10;;;;;;;29.35;26.90;99487.47;10291579;28;20046;-60
2023/06/09 13:55:02;;;;;;;2.70;1.88;;;;;;;29.55;26.57;99493.50;10274481;28;20046;-60
2023/06/09 14:00:07;;;;;;;3.33;2.00;;;;;;;29.72;25.65;99486.47;10221347;28;20059;-60
2023/06/09 14:05:14;;;;;;;3.95;2.00;;;;;;;29.40;26.18;99480.41;10214114;28;20043;-60
2023/06/09 14:10:16;;;;;;;4.57;2.10;;;;;;;29.47;26.28;99481.16;10212144;28;20130;-60
2023/06/09 14:15:18;;;;;;;3.17;2.00;;;;;;;29.04;25.69;99478.47;10213916;28;20746;-60
2023/06/09 14:20:30;;;;;;;3.28;1.95;;;;;;;29.06;24.86;99468.28;10208728;28;20069;-59
2023/06/09 14:25:32;;;;;;;3.58;2.05;;;;;;;29.28;25.37;99470.53;10218180;28;20055;-60
2023/06/09 14:30:34;;;;;;;3.42;1.90;;;;;;;29.31;24.13;99465.56;10213568;28;20070;-60
2023/06/09 14:35:36;;;;;;;2.85;1.80;;;;;;;29.49;25.17;99462.91;10213680;28;20051;-60
2023/06/09 14:40:38;;;;;;;3.28;1.92;;;;;;;29.51;25.58;99455.41;10211308;28;20054;-60
2023/06/09 14:45:40;;;;;;;3.25;1.98;;;;;;;29.18;25.33;99459.47;10214113;28;20047;-60
2023/06/09 14:50:46;;;;;;;7.68;2.10;;;;;;;29.34;25.93;99453.50;10211730;28;20047;-60
2023/06/09 14:55:49;;;;;;;3.05;1.88;;;;;;;29.41;25.29;99460.50;10217856;28;20048;-60
2023/06/09 15:00:50;;;;;;;2.95;1.85;;;;;;;29.62;25.68;99460.03;10275726;28;20058;-60
2023/06/09 15:05:52;;;;;;;3.28;2.00;;;;;;;29.78;25.14;99453.22;10296139;28;20046;-60
2023/06/09 15:10:55;;;;;;;2.92;2.00;;;;;;;29.37;25.16;99467.34;10292852;28;20050;-60
2023/06/09 15:15:57;;;;;;;3.42;2.10;;;;;;;29.10;25.67;99449.81;10295493;28;20517;-60
2023/06/09 15:20:58;;;;;;;3.38;2.08;;;;;;;28.87;25.88;99457.69;10275189;28;20054;-60
2023/06/09 15:26:03;;;;;;;3.47;1.88;;;;;;;28.65;26.18;99448.31;10290093;28;20046;-60
2023/06/09 15:31:05;;;;;;;4.45;2.45;;;;;;;28.66;26.17;99447.31;10290881;28;20509;-60
2023/06/09 15:36:07;;;;;;;3.63;2.00;;;;;;;28.76;26.44;99470.00;10289841;28;20044;-60
2023/06/09 15:41:09;;;;;;;3.70;2.20;;;;;;;28.37;26.58;99464.06;10290567;28;20058;-60
2023/06/09 15:46:11;;;;;;;3.58;2.30;;;;;;;28.60;26.33;99451.69;10294383;28;20054;-60
2023/06/09 15:51:13;;;;;;;3.30;2.05;;;;;;;28.66;26.62;99450.81;10296780;28;20533;-60
2023/06/09 15:56:15;;;;;;;2.85;1.98;;;;;;;28.50;25.80;99442.47;10298572;28;20050;-60
2023/06/09 16:01:17;;;;;;;3.22;2.20;;;;;;;28.61;26.06;99447.94;10290402;28;20628;-60
2023/06/09 16:06:19;;;;;;;6.65;2.33;;;;;;;28.78;26.31;99443.69;10285428;28;20714;-59
2023/06/09 16:11:21;;;;;;;3.50;2.33;;;;;;;28.80;26.05;99438.91;10295894;28;20046;-60
2023/06/09 16:16:22;;;;;;;6.03;2.20;;;;;;;28.74;26.48;99430.88;10299530;28;20054;-60
2023/06/09 16:21:25;;;;;;;3.60;2.05;;;;;;;28.90;26.17;99430.34;10296090;28;20179;-60
2023/06/09 16:26:27;;;;;;;3.25;2.05;;;;;;;28.70;25.87;99435.88;10300205;28;20046;-60
2023/06/09 16:31:31;;;;;;;3.38;2.10;;;;;;;28.61;25.53;99437.19;10294204;28;20042;-60
2023/06/09 16:36:37;;;;;;;3.75;2.40;;;;;;;28.51;24.88;99436.84;10289823;28;20125;-60
2023/06/09 16:41:40;;;;;;;2.95;2.00;;;;;;;28.11;25.65;99443.53;10297909;28;20133;-60
2023/06/09 16:46:42;;;;;;;5.75;2.58;;;;;;;28.14;25.99;99438.53;10278882;28;20442;-60
2023/06/09 16:51:45;;;;;;;4.00;2.20;;;;;;;28.25;26.17;99445.09;10297744;28;20413;-60
2023/06/09 16:56:47;;;;;;;4.55;2.40;;;;;;;28.01;26.35;99448.56;10298221;28;20051;-60
2023/06/09 17:01:49;;;;;;;4.63;2.40;;;;;;;27.78;26.24;99456.31;10280066;28;20826;-60
2023/06/09 17:06:51;;;;;;;3.78;2.30;;;;;;;27.81;26.71;99461.28;10291637;28;20050;-59
2023/06/09 17:11:53;;;;;;;3.58;2.20;;;;;;;27.80;26.89;99460.44;10289900;28;20050;-60
2023/06/09 17:16:55;;;;;;;3.78;2.20;;;;;;;27.79;27.19;99460.66;10290523;28;20736;-60
2023/06/09 17:21:57;;;;;;;5.07;2.42;;;;;;;27.74;26.90;99463.97;10294647;28;20485;-60
2023/06/09 17:26:59;;;;;;;3.55;2.15;;;;;;;27.70;27.50;99464.56;10276739;28;20065;-60
2023/06/09 17:32:02;;;;;;;4.35;2.60;;;;;;;27.28;27.65;99476.69;10294664;28;20053;-60
2023/06/09 17:37:05;;;;;;;3.33;2.30;;;;;;;27.35;27.90;99472.97;10291393;28;20088;-60
2023/06/09 17:42:07;;;;;;;12.75;4.70;;;;;;;27.25;28.05;99471.75;10293936;28;20058;-60
2023/06/09 17:47:09;;;;;;;3.75;2.20;;;;;;;27.39;28.14;99471.50;10265128;28;20065;-60
2023/06/09 17:52:12;;;;;;;3.60;2.30;;;;;;;27.34;28.65;99476.66;10292087;28;20114;-60
2023/06/09 17:57:15;;;;;;;3.50;2.20;;;;;;;27.33;28.60;99485.78;10290951;28;20054;-60
2023/06/09 18:02:17;;;;;;;3.35;2.30;;;;;;;27.26;28.78;99481.47;10297140;28;20061;-60
2023/06/09 18:07:20;;;;;;;4.60;2.25;;;;;;;27.06;29.03;99489.50;10301665;28;20061;-60
2023/06/09 18:12:22;;;;;;;3.58;2.47;;;;;;;26.69;29.29;99492.78;10295062;28;20042;-60
2023/06/09 18:17:24;;;;;;;3.90;2.38;;;;;;;26.76;29.62;99487.44;10278978;28;20486;-60
2023/06/09 18:22:26;;;;;;;3.88;2.33;;;;;;;26.75;29.54;99496.53;10295106;28;20471;-60
2023/06/09 18:27:28;;;;;;;3.92;2.58;;;;;;;26.60;29.76;99486.00;10294162;28;20042;-60
2023/06/09 18:32:30;;;;;;;4.50;3.00;;;;;;;26.53;29.71;99494.00;10296212;28;20818;-65
2023/06/09 18:37:33;;;;;;;4.47;2.22;;;;;;;26.27;30.01;99495.81;10292243;28;20061;-65
2023/06/09 18:42:35;;;;;;;4.00;2.58;;;;;;;26.28;30.05;99497.47;10293832;28;20055;-65
2023/06/09 18:47:41;;;;;;;4.05;2.50;;;;;;;26.07;30.41;99501.13;10295924;28;20045;-65
2023/06/09 18:52:44;;;;;;;5.72;2.80;;;;;;;25.95;30.66;99508.06;10287972;28;20510;-65
2023/06/09 18:57:46;;;;;;;4.88;2.70;;;;;;;25.71;31.10;99512.03;10296217;28;20043;-65
2023/06/09 19:02:48;;;;;;;5.60;2.67;;;;;;;25.63;31.34;99516.78;10294838;28;20061;-65
2023/06/09 19:07:50;;;;;;;4.13;2.50;;;;;;;25.54;31.48;99517.94;10295744;28;20414;-65
2023/06/09 19:12:51;;;;;;;4.55;2.80;;;;;;;25.39;32.07;99514.53;10299668;28;20053;-65
2023/06/09 19:17:54;;;;;;;4.47;2.70;;;;;;;25.24;32.51;99517.31;10297644;28;20054;-65
2023/06/09 19:22:56;;;;;;;4.15;2.78;;;;;;;25.01;32.89;99528.25;10307379;28;20061;-64
2023/06/09 19:27:58;;;;;;;4.03;2.60;;;;;;;24.60;33.48;99531.75;10303377;28;20054;-65
2023/06/09 19:33:00;;;;;;;5.05;2.55;;;;;;;24.56;33.73;99533.16;10305913;28;20043;-65
2023/06/09 19:38:02;;;;;;;4.13;2.60;;;;;;;24.46;33.89;99535.31;10305592;28;20054;-65
2023/06/09 19:43:04;;;;;;;4.28;2.60;;;;;;;24.36;34.44;99540.13;10306031;28;20563;-64
2023/06/09 19:48:06;;;;;;;4.38;2.83;;;;;;;24.04;34.90;99552.88;10299879;28;20050;-64
2023/06/09 19:53:08;;;;;;;5.03;2.80;;;;;;;23.83;35.29;99560.84;10304608;28;20592;-65
2023/06/09 19:58:11;;;;;;;5.28;2.90;;;;;;;23.68;35.65;99569.84;10285809;28;20062;-65
2023/06/09 20:03:15;;;;;;;4.40;2.63;;;;;;;23.26;36.36;99586.44;10304497;28;20042;-65
2023/06/09 20:08:17;;;;;;;4.30;2.63;;;;;;;22.93;36.57;99593.06;10303450;28;20104;-65
2023/06/09 20:13:19;;;;;;;3.70;2.38;;;;;;;22.73;37.08;99594.50;10286310;28;20191;-65
2023/06/09 20:18:21;;;;;;;6.25;2.97;;;;;;;22.64;37.42;99597.25;10302378;28;20050;-65
2023/06/09 20:23:29;;;;;;;5.05;2.83;;;;;;;22.59;37.75;99604.13;10299250;28;20062;-65
2023/06/09 20:28:33;;;;;;;5.15;3.00;;;;;;;22.49;37.85;99609.69;10302981;28;20046;-65
2023/06/09 20:33:42;;;;;;;4.70;2.80;;;;;;;22.34;39.26;99627.41;10301104;28;20418;-65
2023/06/09 20:38:45;;;;;;;4.10;2.60;;;;;;;22.23;38.85;99627.78;10303521;28;20055;-65
2023/06/09 20:43:49;;;;;;;4.40;3.10;;;;;;;21.98;38.99;99633.34;10299317;28;20374;-65
2023/06/09 20:48:51;;;;;;;4.75;3.00;;;;;;;21.62;39.59;99636.41;10282100;28;20046;-64
2023/06/09 20:53:55;;;;;;;4.30;2.83;;;;;;;21.39;40.14;99640.78;10297155;28;20069;-64
2023/06/09 20:58:57;;;;;;;5.80;3.05;;;;;;;21.23;40.62;99642.59;10299163;28;20050;-65
2023/06/09 21:04:00;;;;;;;4.15;2.95;;;;;;;21.27;40.84;99636.78;10300380;28;20062;-64
2023/06/09 21:09:03;;;;;;;5.18;3.30;;;;;;;21.30;40.76;99646.22;10297767;28;20504;-64
2023/06/09 21:14:05;;;;;;;4.63;2.80;;;;;;;21.25;41.01;99657.38;10299665;28;20042;-64
2023/06/09 21:19:07;;;;;;;5.75;3.70;;;;;;;21.24;41.27;99653.06;10296599;28;20069;-64
2023/06/09 21:24:09;;;;;;;5.22;3.40;;;;;;;21.17;41.41;99657.34;10296915;28;20598;-64
2023/06/09 21:29:11;;;;;;;4.72;3.15;;;;;;;21.13;41.59;99660.53;10295351;28;21099;-64
2023/06/09 21:34:13;;;;;;;4.30;3.10;;;;;;;21.11;41.99;99667.84;10299387;28;20414;-64
2023/06/09 21:39:15;;;;;;;5.40;3.25;;;;;;;20.80;42.02;99665.81;10297528;28;20058;-65
2023/06/09 21:44:17;;;;;;;5.03;3.28;;;;;;;20.59;42.59;99668.06;10297607;28;20529;-64
2023/06/09 21:49:19;;;;;;;7.22;2.97;;;;;;;20.65;42.97;99678.06;10296634;28;20865;-64
2023/06/09 21:54:21;;;;;;;3.92;2.75;;;;;;;20.69;42.90;99674.09;10295924;28;20910;-65
2023/06/09 21:59:23;;;;;;;5.88;3.13;;;;;;;20.63;43.21;99680.03;10282667;28;20061;-65
2023/06/09 22:04:25;;;;;;;5.68;3.38;;;;;;;20.49;43.62;99677.97;10299238;28;20042;-65
2023/06/09 22:09:28;;;;;;;4.45;2.75;;;;;;;20.38;44.03;99680.91;10298613;28;20157;-64
2023/06/09 22:14:30;;;;;;;4.97;3.20;;;;;;;20.32;44.12;99686.03;10312236;28;20047;-65
2023/06/09 22:19:35;;;;;;;4.60;3.00;;;;;;;20.27;44.34;99686.53;10298845;28;20681;-65
2023/06/09 22:24:37;;;;;;;4.97;3.25;;;;;;;20.21;44.36;99695.94;10297925;28;20153;-64
2023/06/09 22:29:38;;;;;;;5.53;2.75;;;;;;;20.06;44.81;99694.03;10297157;28;20513;-64
2023/06/09 22:34:40;;;;;;;5.53;3.20;;;;;;;19.93;45.10;99696.28;10299496;28;20046;-64
2023/06/09 22:39:42;;;;;;;8.05;3.55;;;;;;;19.78;45.29;99700.47;10298098;28;20061;-64
2023/06/09 22:44:45;;;;;;;5.43;3.45;;;;;;;19.51;45.66;99692.63;10297905;28;20054;-64
2023/06/09 22:50:03;;;;;;;5.13;3.30;;;;;;;19.40;46.99;99702.50;10297675;28;20486;-65
2023/06/09 22:55:06;;;;;;;6.07;3.60;;;;;;;19.13;46.27;99696.47;10297567;28;20053;-64
2023/06/09 23:00:12;;;;;;;5.47;3.40;;;;;;;19.02;46.56;99699.31;10297871;28;20060;-64
2023/06/09 23:05:16;;;;;;;5.53;3.10;;;;;;;18.88;46.93;99700.66;10298744;28;20069;-64
2023/06/09 23:10:18;;;;;;;5.47;3.33;;;;;;;18.93;47.19;99695.72;10296273;28;20088;-64
2023/06/09 23:15:22;;;;;;;4.78;3.20;;;;;;;18.99;47.10;99697.75;10297320;28;20042;-64
2023/06/09 23:20:25;;;;;;;6.00;3.50;;;;;;;18.86;47.07;99693.81;10282239;28;20501;-64
2023/06/09 23:25:27;;;;;;;8.07;3.58;;;;;;;18.74;47.55;99692.38;10297260;28;20086;-64
2023/06/09 23:30:29;;;;;;;5.78;3.50;;;;;;;18.72;47.64;99681.94;10298024;28;20046;-64
2023/06/09 23:35:33;;;;;;;4.97;3.25;;;;;;;18.53;48.20;99696.13;10296278;28;20046;-64
2023/06/09 23:40:35;;;;;;;5.13;3.33;;;;;;;18.52;48.45;99694.44;10295272;28;20047;-65